Roanoke, VA (24015)

6:31 AM EDT on July 27, 2016 (GMT -0400)
| | Change Station

Elev -9999 ft 0.00 °N, 0.00 °E | Updated

Clear
Clear
80 °F
Feels Like 85 °F
N
1
Wind Variable Wind from WNW
Gusts mph

Today
High -- | Low -- °F
--% Chance of Precip.
Yesterday
High -- | Low -- °F
Precip. -- in
Pressure 29.99 in
Visibility 10.0 miles
Clouds Few 25000 ft
Heat Index 85 °F
Dew Point 72 °F
Humidity 77%
Rainfall --
Snow Depth Not available.
6:20 AM 8:31 PM
Last Quarter, 44% visible
METAR KROA 270954Z 31003KT 10SM FEW250 23/22 A3003 RMK AO2 SLP154 T02280217
Pressure 29.99 in
Visibility 10.0 miles
Clouds Few 25000 ft
Heat Index 85 °F
Dew Point 72 °F
Humidity 77%
Rainfall --
Snow Depth Not available.
6:20 AM 8:31 PM
Last Quarter, 44% visible
METAR KROA 270954Z 31003KT 10SM FEW250 23/22 A3003 RMK AO2 SLP154 T02280217

10-Day Weather Forecast

Almanac

Astronomy

Jul. 27, 2016 Rise Set
Actual Time
Civil Twilight
Nautical Twilight
Astronomical Twilight
Moon
Length of Visible Light
Length of Day
Tomorrow will be .
, % of the Moon is Illuminated

Today's Extremes

State Highs State Lows

Community

WunderPhotos

Upload Photos

1,927,825 photos uploaded!

WunderBlog® & News

Nearby

Air Quality

  Air Quality AQ Index Pollutant
Not available.

Snow Depth

Station Depth Elevation

Earthquake Activity

City Distance Mag. Time & Date
Minimum magnitude displayed is 2.5.

Coastal Water Temperatures

Place Temperature

Stations

Nearby Weather Stations

Station Location Temp. Windchill Dew Point Humidity Wind Precip. Elev Updated Type
                   

Watches & Warnings

There are currently no watches in effect.